sensor_id;sensor_type;location;lat;lon;timestamp;P1;durP1;ratioP1;P2;durP2;ratioP2
67074;SDS011;53990;50.334;18.640;2023-08-24T00:01:53;8.80;;;5.70;;
67074;SDS011;53990;50.334;18.640;2023-08-24T00:04:19;9.20;;;5.90;;
67074;SDS011;53990;50.334;18.640;2023-08-24T00:06:46;8.80;;;6.40;;
67074;SDS011;53990;50.334;18.640;2023-08-24T00:09:13;12.20;;;6.00;;
67074;SDS011;53990;50.334;18.640;2023-08-24T00:11:41;9.80;;;5.90;;
67074;SDS011;53990;50.334;18.640;2023-08-24T00:14:09;10.00;;;6.40;;
67074;SDS011;53990;50.334;18.640;2023-08-24T00:16:36;9.60;;;6.20;;
67074;SDS011;53990;50.334;18.640;2023-08-24T00:19:02;14.70;;;6.40;;
67074;SDS011;53990;50.334;18.640;2023-08-24T00:21:30;8.60;;;5.90;;
67074;SDS011;53990;50.334;18.640;2023-08-24T00:23:56;10.50;;;5.70;;
67074;SDS011;53990;50.334;18.640;2023-08-24T00:26:23;9.50;;;6.30;;
67074;SDS011;53990;50.334;18.640;2023-08-24T00:28:50;7.70;;;6.00;;
67074;SDS011;53990;50.334;18.640;2023-08-24T00:31:16;10.10;;;6.60;;
67074;SDS011;53990;50.334;18.640;2023-08-24T00:33:43;8.90;;;5.80;;
67074;SDS011;53990;50.334;18.640;2023-08-24T00:36:10;9.50;;;5.60;;
67074;SDS011;53990;50.334;18.640;2023-08-24T00:38:37;9.80;;;5.60;;
67074;SDS011;53990;50.334;18.640;2023-08-24T00:41:04;12.40;;;7.00;;
67074;SDS011;53990;50.334;18.640;2023-08-24T00:43:31;9.10;;;5.90;;
67074;SDS011;53990;50.334;18.640;2023-08-24T00:46:00;9.20;;;5.90;;
67074;SDS011;53990;50.334;18.640;2023-08-24T00:48:28;9.70;;;6.00;;
67074;SDS011;53990;50.334;18.640;2023-08-24T00:50:57;12.00;;;6.50;;
67074;SDS011;53990;50.334;18.640;2023-08-24T00:53:26;9.10;;;6.20;;
67074;SDS011;53990;50.334;18.640;2023-08-24T00:55:53;13.00;;;6.60;;
67074;SDS011;53990;50.334;18.640;2023-08-24T00:58:20;11.30;;;6.60;;
67074;SDS011;53990;50.334;18.640;2023-08-24T01:00:49;8.60;;;6.40;;
67074;SDS011;53990;50.334;18.640;2023-08-24T01:03:17;10.40;;;6.20;;
67074;SDS011;53990;50.334;18.640;2023-08-24T01:05:44;11.40;;;6.30;;
67074;SDS011;53990;50.334;18.640;2023-08-24T01:08:12;12.10;;;6.80;;
67074;SDS011;53990;50.334;18.640;2023-08-24T01:13:30;11.10;;;6.30;;
67074;SDS011;53990;50.334;18.640;2023-08-24T01:16:08;10.70;;;6.80;;
67074;SDS011;53990;50.334;18.640;2023-08-24T01:18:35;13.50;;;7.60;;
67074;SDS011;53990;50.334;18.640;2023-08-24T01:21:03;13.30;;;7.10;;
67074;SDS011;53990;50.334;18.640;2023-08-24T01:23:41;10.70;;;6.80;;
67074;SDS011;53990;50.334;18.640;2023-08-24T01:26:14;9.20;;;6.80;;
67074;SDS011;53990;50.334;18.640;2023-08-24T01:28:43;13.80;;;7.20;;
67074;SDS011;53990;50.334;18.640;2023-08-24T01:31:10;12.60;;;8.40;;
67074;SDS011;53990;50.334;18.640;2023-08-24T01:33:39;13.80;;;9.00;;
67074;SDS011;53990;50.334;18.640;2023-08-24T01:36:06;10.70;;;7.30;;
67074;SDS011;53990;50.334;18.640;2023-08-24T01:38:33;14.90;;;9.00;;
67074;SDS011;53990;50.334;18.640;2023-08-24T01:41:08;12.20;;;7.90;;
67074;SDS011;53990;50.334;18.640;2023-08-24T01:43:36;13.20;;;8.20;;
67074;SDS011;53990;50.334;18.640;2023-08-24T01:46:04;15.20;;;8.70;;
67074;SDS011;53990;50.334;18.640;2023-08-24T01:48:31;14.60;;;9.10;;
67074;SDS011;53990;50.334;18.640;2023-08-24T01:50:59;12.60;;;8.00;;
67074;SDS011;53990;50.334;18.640;2023-08-24T01:53:29;12.90;;;9.00;;
67074;SDS011;53990;50.334;18.640;2023-08-24T01:55:56;14.00;;;8.50;;
67074;SDS011;53990;50.334;18.640;2023-08-24T01:58:23;13.10;;;7.90;;
67074;SDS011;53990;50.334;18.640;2023-08-24T02:00:50;11.80;;;8.40;;
67074;SDS011;53990;50.334;18.640;2023-08-24T02:03:16;13.40;;;8.80;;
67074;SDS011;53990;50.334;18.640;2023-08-24T02:05:43;12.60;;;8.80;;
67074;SDS011;53990;50.334;18.640;2023-08-24T02:08:10;13.90;;;9.90;;
67074;SDS011;53990;50.334;18.640;2023-08-24T02:10:37;13.10;;;8.90;;
67074;SDS011;53990;50.334;18.640;2023-08-24T02:13:03;11.20;;;7.80;;
67074;SDS011;53990;50.334;18.640;2023-08-24T02:15:30;14.90;;;9.30;;
67074;SDS011;53990;50.334;18.640;2023-08-24T02:17:57;13.70;;;8.40;;
67074;SDS011;53990;50.334;18.640;2023-08-24T02:20:23;12.70;;;8.90;;
67074;SDS011;53990;50.334;18.640;2023-08-24T02:22:50;12.00;;;8.00;;
67074;SDS011;53990;50.334;18.640;2023-08-24T02:25:17;14.60;;;8.80;;
67074;SDS011;53990;50.334;18.640;2023-08-24T02:27:43;10.10;;;7.90;;
67074;SDS011;53990;50.334;18.640;2023-08-24T02:30:11;13.10;;;8.10;;
67074;SDS011;53990;50.334;18.640;2023-08-24T02:32:37;13.70;;;8.80;;
67074;SDS011;53990;50.334;18.640;2023-08-24T02:35:04;11.90;;;8.00;;
67074;SDS011;53990;50.334;18.640;2023-08-24T02:37:31;13.50;;;8.60;;
67074;SDS011;53990;50.334;18.640;2023-08-24T02:39:58;13.00;;;8.50;;
67074;SDS011;53990;50.334;18.640;2023-08-24T02:42:25;13.90;;;8.60;;
67074;SDS011;53990;50.334;18.640;2023-08-24T02:44:52;21.90;;;14.40;;
67074;SDS011;53990;50.334;18.640;2023-08-24T02:47:18;19.70;;;11.20;;
67074;SDS011;53990;50.334;18.640;2023-08-24T02:49:45;17.40;;;10.70;;
67074;SDS011;53990;50.334;18.640;2023-08-24T02:52:12;15.00;;;9.60;;
67074;SDS011;53990;50.334;18.640;2023-08-24T02:54:39;16.50;;;10.90;;
67074;SDS011;53990;50.334;18.640;2023-08-24T02:57:06;15.00;;;9.30;;
67074;SDS011;53990;50.334;18.640;2023-08-24T02:59:32;13.90;;;9.40;;
67074;SDS011;53990;50.334;18.640;2023-08-24T03:01:59;16.10;;;8.60;;
67074;SDS011;53990;50.334;18.640;2023-08-24T03:04:26;14.40;;;9.60;;
67074;SDS011;53990;50.334;18.640;2023-08-24T03:06:53;13.40;;;9.20;;
67074;SDS011;53990;50.334;18.640;2023-08-24T03:09:20;13.90;;;9.20;;
67074;SDS011;53990;50.334;18.640;2023-08-24T03:11:46;15.50;;;9.20;;
67074;SDS011;53990;50.334;18.640;2023-08-24T03:14:13;17.50;;;9.30;;
67074;SDS011;53990;50.334;18.640;2023-08-24T03:16:40;12.90;;;8.70;;
67074;SDS011;53990;50.334;18.640;2023-08-24T03:19:06;13.50;;;8.50;;
67074;SDS011;53990;50.334;18.640;2023-08-24T03:21:33;12.40;;;8.80;;
67074;SDS011;53990;50.334;18.640;2023-08-24T03:24:00;15.80;;;9.40;;
67074;SDS011;53990;50.334;18.640;2023-08-24T03:26:27;14.00;;;9.30;;
67074;SDS011;53990;50.334;18.640;2023-08-24T03:28:54;11.90;;;8.70;;
67074;SDS011;53990;50.334;18.640;2023-08-24T03:31:20;11.50;;;8.60;;
67074;SDS011;53990;50.334;18.640;2023-08-24T03:33:47;14.00;;;9.50;;
67074;SDS011;53990;50.334;18.640;2023-08-24T03:36:13;13.30;;;8.70;;
67074;SDS011;53990;50.334;18.640;2023-08-24T03:38:40;13.60;;;8.90;;
67074;SDS011;53990;50.334;18.640;2023-08-24T03:41:07;13.40;;;8.50;;
67074;SDS011;53990;50.334;18.640;2023-08-24T03:43:34;11.90;;;8.50;;
67074;SDS011;53990;50.334;18.640;2023-08-24T03:46:02;13.00;;;7.90;;
67074;SDS011;53990;50.334;18.640;2023-08-24T03:48:30;13.40;;;8.80;;
67074;SDS011;53990;50.334;18.640;2023-08-24T03:50:57;11.50;;;8.40;;
67074;SDS011;53990;50.334;18.640;2023-08-24T03:53:24;11.60;;;8.30;;
67074;SDS011;53990;50.334;18.640;2023-08-24T03:55:52;12.00;;;8.60;;
67074;SDS011;53990;50.334;18.640;2023-08-24T03:58:19;12.40;;;8.10;;
67074;SDS011;53990;50.334;18.640;2023-08-24T04:00:46;14.90;;;9.40;;
67074;SDS011;53990;50.334;18.640;2023-08-24T04:03:17;14.50;;;8.60;;
67074;SDS011;53990;50.334;18.640;2023-08-24T04:05:44;12.70;;;8.70;;
67074;SDS011;53990;50.334;18.640;2023-08-24T04:08:11;12.20;;;8.10;;
67074;SDS011;53990;50.334;18.640;2023-08-24T04:10:40;13.20;;;9.10;;
67074;SDS011;53990;50.334;18.640;2023-08-24T04:13:06;14.10;;;9.00;;
67074;SDS011;53990;50.334;18.640;2023-08-24T04:15:33;14.60;;;9.50;;
67074;SDS011;53990;50.334;18.640;2023-08-24T04:18:00;15.30;;;9.60;;
67074;SDS011;53990;50.334;18.640;2023-08-24T04:20:27;13.30;;;8.70;;
67074;SDS011;53990;50.334;18.640;2023-08-24T04:22:54;12.10;;;8.40;;
67074;SDS011;53990;50.334;18.640;2023-08-24T04:25:22;14.40;;;9.10;;
67074;SDS011;53990;50.334;18.640;2023-08-24T04:27:48;14.00;;;8.60;;
67074;SDS011;53990;50.334;18.640;2023-08-24T04:30:16;13.90;;;9.20;;
67074;SDS011;53990;50.334;18.640;2023-08-24T04:32:42;16.70;;;10.00;;
67074;SDS011;53990;50.334;18.640;2023-08-24T04:35:09;14.20;;;9.90;;
67074;SDS011;53990;50.334;18.640;2023-08-24T04:37:36;14.20;;;10.20;;
67074;SDS011;53990;50.334;18.640;2023-08-24T04:40:06;14.40;;;9.90;;
67074;SDS011;53990;50.334;18.640;2023-08-24T04:42:37;14.00;;;8.80;;
67074;SDS011;53990;50.334;18.640;2023-08-24T04:45:04;13.70;;;9.80;;
67074;SDS011;53990;50.334;18.640;2023-08-24T04:47:31;14.60;;;10.10;;
67074;SDS011;53990;50.334;18.640;2023-08-24T04:49:57;16.20;;;11.10;;
67074;SDS011;53990;50.334;18.640;2023-08-24T04:52:24;14.90;;;10.80;;
67074;SDS011;53990;50.334;18.640;2023-08-24T04:54:51;15.30;;;10.70;;
67074;SDS011;53990;50.334;18.640;2023-08-24T04:57:17;16.90;;;11.00;;
67074;SDS011;53990;50.334;18.640;2023-08-24T04:59:45;15.10;;;10.30;;
67074;SDS011;53990;50.334;18.640;2023-08-24T05:02:14;14.20;;;10.50;;
67074;SDS011;53990;50.334;18.640;2023-08-24T05:04:41;18.70;;;10.60;;
67074;SDS011;53990;50.334;18.640;2023-08-24T05:07:07;14.10;;;10.20;;
67074;SDS011;53990;50.334;18.640;2023-08-24T05:09:34;12.60;;;10.20;;
67074;SDS011;53990;50.334;18.640;2023-08-24T05:12:01;13.50;;;10.90;;
67074;SDS011;53990;50.334;18.640;2023-08-24T05:14:27;15.90;;;10.70;;
67074;SDS011;53990;50.334;18.640;2023-08-24T05:16:54;16.00;;;10.80;;
67074;SDS011;53990;50.334;18.640;2023-08-24T05:19:21;14.40;;;10.60;;
67074;SDS011;53990;50.334;18.640;2023-08-24T05:21:47;21.00;;;13.20;;
67074;SDS011;53990;50.334;18.640;2023-08-24T05:24:14;17.20;;;11.70;;
67074;SDS011;53990;50.334;18.640;2023-08-24T05:26:41;16.70;;;12.30;;
67074;SDS011;53990;50.334;18.640;2023-08-24T05:29:07;17.80;;;12.00;;
67074;SDS011;53990;50.334;18.640;2023-08-24T05:31:34;18.40;;;13.30;;
67074;SDS011;53990;50.334;18.640;2023-08-24T05:34:01;21.70;;;14.20;;
67074;SDS011;53990;50.334;18.640;2023-08-24T05:36:27;18.90;;;14.00;;
67074;SDS011;53990;50.334;18.640;2023-08-24T05:38:54;16.90;;;12.50;;
67074;SDS011;53990;50.334;18.640;2023-08-24T05:41:22;18.60;;;11.90;;
67074;SDS011;53990;50.334;18.640;2023-08-24T05:43:49;17.30;;;11.80;;
67074;SDS011;53990;50.334;18.640;2023-08-24T05:46:19;18.30;;;12.50;;
67074;SDS011;53990;50.334;18.640;2023-08-24T05:48:45;18.90;;;12.20;;
67074;SDS011;53990;50.334;18.640;2023-08-24T05:51:12;14.90;;;11.50;;
67074;SDS011;53990;50.334;18.640;2023-08-24T05:53:39;16.90;;;12.00;;
67074;SDS011;53990;50.334;18.640;2023-08-24T05:56:07;18.70;;;14.50;;
67074;SDS011;53990;50.334;18.640;2023-08-24T05:58:33;22.20;;;15.70;;
67074;SDS011;53990;50.334;18.640;2023-08-24T06:01:00;22.60;;;16.90;;
67074;SDS011;53990;50.334;18.640;2023-08-24T06:03:27;23.10;;;16.90;;
67074;SDS011;53990;50.334;18.640;2023-08-24T06:05:54;24.60;;;18.30;;
67074;SDS011;53990;50.334;18.640;2023-08-24T06:08:26;27.70;;;20.00;;
67074;SDS011;53990;50.334;18.640;2023-08-24T06:10:53;29.30;;;19.80;;
67074;SDS011;53990;50.334;18.640;2023-08-24T06:13:20;24.70;;;18.10;;
67074;SDS011;53990;50.334;18.640;2023-08-24T06:15:46;25.10;;;18.10;;
67074;SDS011;53990;50.334;18.640;2023-08-24T06:18:13;21.40;;;17.30;;
67074;SDS011;53990;50.334;18.640;2023-08-24T06:20:40;22.70;;;16.70;;
67074;SDS011;53990;50.334;18.640;2023-08-24T06:23:06;23.90;;;16.40;;
67074;SDS011;53990;50.334;18.640;2023-08-24T06:25:35;27.40;;;18.10;;
67074;SDS011;53990;50.334;18.640;2023-08-24T06:28:01;25.40;;;16.60;;
67074;SDS011;53990;50.334;18.640;2023-08-24T06:30:30;28.10;;;17.20;;
67074;SDS011;53990;50.334;18.640;2023-08-24T06:33:03;27.80;;;17.50;;
67074;SDS011;53990;50.334;18.640;2023-08-24T06:35:30;25.60;;;16.70;;
67074;SDS011;53990;50.334;18.640;2023-08-24T06:37:57;21.50;;;16.70;;
67074;SDS011;53990;50.334;18.640;2023-08-24T06:40:24;22.10;;;16.20;;
67074;SDS011;53990;50.334;18.640;2023-08-24T06:42:50;28.00;;;17.00;;
67074;SDS011;53990;50.334;18.640;2023-08-24T06:45:17;22.40;;;15.10;;
67074;SDS011;53990;50.334;18.640;2023-08-24T06:47:44;22.30;;;14.50;;
67074;SDS011;53990;50.334;18.640;2023-08-24T06:50:12;25.10;;;15.90;;
67074;SDS011;53990;50.334;18.640;2023-08-24T06:52:38;22.10;;;15.80;;
67074;SDS011;53990;50.334;18.640;2023-08-24T06:55:05;23.10;;;14.40;;
67074;SDS011;53990;50.334;18.640;2023-08-24T06:57:32;19.40;;;14.60;;
67074;SDS011;53990;50.334;18.640;2023-08-24T06:59:59;20.90;;;15.30;;
67074;SDS011;53990;50.334;18.640;2023-08-24T07:02:26;30.00;;;19.70;;
67074;SDS011;53990;50.334;18.640;2023-08-24T07:04:53;27.20;;;19.80;;
67074;SDS011;53990;50.334;18.640;2023-08-24T07:07:20;22.10;;;14.60;;
67074;SDS011;53990;50.334;18.640;2023-08-24T07:09:46;21.50;;;14.20;;
67074;SDS011;53990;50.334;18.640;2023-08-24T07:12:13;19.60;;;14.60;;
67074;SDS011;53990;50.334;18.640;2023-08-24T07:14:40;20.50;;;12.70;;
67074;SDS011;53990;50.334;18.640;2023-08-24T07:17:06;17.10;;;11.20;;
67074;SDS011;53990;50.334;18.640;2023-08-24T07:19:33;16.30;;;9.80;;
67074;SDS011;53990;50.334;18.640;2023-08-24T07:22:00;18.40;;;9.30;;
67074;SDS011;53990;50.334;18.640;2023-08-24T07:24:27;15.90;;;8.80;;
67074;SDS011;53990;50.334;18.640;2023-08-24T07:26:55;17.40;;;9.00;;
67074;SDS011;53990;50.334;18.640;2023-08-24T07:29:22;13.90;;;8.60;;
67074;SDS011;53990;50.334;18.640;2023-08-24T07:31:49;16.30;;;9.40;;
67074;SDS011;53990;50.334;18.640;2023-08-24T07:34:15;14.70;;;8.80;;
67074;SDS011;53990;50.334;18.640;2023-08-24T07:36:42;18.20;;;11.00;;
67074;SDS011;53990;50.334;18.640;2023-08-24T07:39:11;17.10;;;9.70;;
67074;SDS011;53990;50.334;18.640;2023-08-24T07:41:38;22.90;;;11.70;;
67074;SDS011;53990;50.334;18.640;2023-08-24T07:44:05;13.40;;;9.10;;
67074;SDS011;53990;50.334;18.640;2023-08-24T07:46:32;14.40;;;7.90;;
67074;SDS011;53990;50.334;18.640;2023-08-24T07:48:59;12.40;;;9.00;;
67074;SDS011;53990;50.334;18.640;2023-08-24T07:51:26;14.80;;;8.40;;
67074;SDS011;53990;50.334;18.640;2023-08-24T07:53:53;13.90;;;7.90;;
67074;SDS011;53990;50.334;18.640;2023-08-24T07:56:20;11.00;;;7.00;;
67074;SDS011;53990;50.334;18.640;2023-08-24T07:58:46;15.20;;;7.70;;
67074;SDS011;53990;50.334;18.640;2023-08-24T08:01:13;19.30;;;12.70;;
67074;SDS011;53990;50.334;18.640;2023-08-24T08:03:40;12.60;;;8.30;;
67074;SDS011;53990;50.334;18.640;2023-08-24T08:06:06;15.00;;;7.90;;
67074;SDS011;53990;50.334;18.640;2023-08-24T08:08:33;12.80;;;7.70;;
67074;SDS011;53990;50.334;18.640;2023-08-24T08:11:01;11.00;;;7.10;;
67074;SDS011;53990;50.334;18.640;2023-08-24T08:13:29;17.50;;;9.10;;
67074;SDS011;53990;50.334;18.640;2023-08-24T08:16:03;14.10;;;8.80;;
67074;SDS011;53990;50.334;18.640;2023-08-24T08:18:35;11.70;;;7.80;;
67074;SDS011;53990;50.334;18.640;2023-08-24T08:21:17;13.10;;;7.40;;
67074;SDS011;53990;50.334;18.640;2023-08-24T08:23:45;14.30;;;9.00;;
67074;SDS011;53990;50.334;18.640;2023-08-24T08:26:12;12.10;;;7.00;;
67074;SDS011;53990;50.334;18.640;2023-08-24T08:28:40;11.60;;;7.50;;
67074;SDS011;53990;50.334;18.640;2023-08-24T08:31:07;15.40;;;7.20;;
67074;SDS011;53990;50.334;18.640;2023-08-24T08:33:33;10.70;;;7.20;;
67074;SDS011;53990;50.334;18.640;2023-08-24T08:36:05;13.40;;;7.50;;
67074;SDS011;53990;50.334;18.640;2023-08-24T08:38:31;10.30;;;7.40;;
67074;SDS011;53990;50.334;18.640;2023-08-24T08:41:02;9.60;;;6.50;;
67074;SDS011;53990;50.334;18.640;2023-08-24T08:43:30;12.50;;;6.50;;
67074;SDS011;53990;50.334;18.640;2023-08-24T08:45:58;7.70;;;5.80;;
67074;SDS011;53990;50.334;18.640;2023-08-24T08:48:25;12.20;;;9.10;;
67074;SDS011;53990;50.334;18.640;2023-08-24T08:50:52;13.40;;;7.60;;
67074;SDS011;53990;50.334;18.640;2023-08-24T08:53:23;11.60;;;6.50;;
67074;SDS011;53990;50.334;18.640;2023-08-24T08:55:51;10.70;;;6.20;;
67074;SDS011;53990;50.334;18.640;2023-08-24T08:58:20;10.30;;;6.00;;
67074;SDS011;53990;50.334;18.640;2023-08-24T09:00:47;9.20;;;5.80;;
67074;SDS011;53990;50.334;18.640;2023-08-24T09:03:17;10.20;;;4.90;;
67074;SDS011;53990;50.334;18.640;2023-08-24T09:05:44;9.80;;;5.70;;
67074;SDS011;53990;50.334;18.640;2023-08-24T09:08:17;8.30;;;5.00;;
67074;SDS011;53990;50.334;18.640;2023-08-24T09:10:44;8.20;;;5.60;;
67074;SDS011;53990;50.334;18.640;2023-08-24T09:13:11;6.50;;;4.90;;
67074;SDS011;53990;50.334;18.640;2023-08-24T09:15:38;7.00;;;5.20;;
67074;SDS011;53990;50.334;18.640;2023-08-24T09:18:05;10.00;;;5.60;;
67074;SDS011;53990;50.334;18.640;2023-08-24T09:20:33;7.20;;;4.90;;
67074;SDS011;53990;50.334;18.640;2023-08-24T09:23:01;8.70;;;4.90;;
67074;SDS011;53990;50.334;18.640;2023-08-24T09:25:28;9.80;;;4.80;;
67074;SDS011;53990;50.334;18.640;2023-08-24T09:27:58;9.40;;;5.20;;
67074;SDS011;53990;50.334;18.640;2023-08-24T09:30:34;8.90;;;5.30;;
67074;SDS011;53990;50.334;18.640;2023-08-24T09:33:09;8.30;;;5.70;;
67074;SDS011;53990;50.334;18.640;2023-08-24T09:35:36;7.90;;;4.90;;
67074;SDS011;53990;50.334;18.640;2023-08-24T09:38:20;6.90;;;4.50;;
67074;SDS011;53990;50.334;18.640;2023-08-24T09:40:51;8.20;;;5.20;;
67074;SDS011;53990;50.334;18.640;2023-08-24T09:43:19;7.00;;;5.20;;
67074;SDS011;53990;50.334;18.640;2023-08-24T09:45:55;7.70;;;4.40;;
67074;SDS011;53990;50.334;18.640;2023-08-24T09:48:23;8.10;;;4.60;;
67074;SDS011;53990;50.334;18.640;2023-08-24T09:50:51;9.20;;;4.70;;
67074;SDS011;53990;50.334;18.640;2023-08-24T09:53:22;7.70;;;5.00;;
67074;SDS011;53990;50.334;18.640;2023-08-24T09:55:55;9.20;;;5.30;;
67074;SDS011;53990;50.334;18.640;2023-08-24T09:58:23;8.50;;;4.80;;
67074;SDS011;53990;50.334;18.640;2023-08-24T10:00:50;9.30;;;5.10;;
67074;SDS011;53990;50.334;18.640;2023-08-24T10:03:19;8.80;;;4.50;;
67074;SDS011;53990;50.334;18.640;2023-08-24T10:05:51;9.20;;;6.40;;
67074;SDS011;53990;50.334;18.640;2023-08-24T10:08:34;9.40;;;5.10;;
67074;SDS011;53990;50.334;18.640;2023-08-24T10:11:02;10.00;;;6.50;;
67074;SDS011;53990;50.334;18.640;2023-08-24T10:16:13;11.00;;;6.70;;
67074;SDS011;53990;50.334;18.640;2023-08-24T10:18:41;11.10;;;7.10;;
67074;SDS011;53990;50.334;18.640;2023-08-24T10:21:08;10.60;;;7.70;;
67074;SDS011;53990;50.334;18.640;2023-08-24T10:23:35;9.50;;;5.90;;
67074;SDS011;53990;50.334;18.640;2023-08-24T10:26:03;12.30;;;6.20;;
67074;SDS011;53990;50.334;18.640;2023-08-24T10:28:30;9.90;;;7.50;;
67074;SDS011;53990;50.334;18.640;2023-08-24T10:30:59;13.60;;;10.10;;
67074;SDS011;53990;50.334;18.640;2023-08-24T10:33:27;8.30;;;5.50;;
67074;SDS011;53990;50.334;18.640;2023-08-24T10:35:54;9.40;;;6.10;;
67074;SDS011;53990;50.334;18.640;2023-08-24T10:38:25;7.60;;;5.60;;
67074;SDS011;53990;50.334;18.640;2023-08-24T10:40:53;8.40;;;5.10;;
67074;SDS011;53990;50.334;18.640;2023-08-24T10:43:22;7.80;;;5.20;;
67074;SDS011;53990;50.334;18.640;2023-08-24T10:45:59;7.60;;;4.80;;
67074;SDS011;53990;50.334;18.640;2023-08-24T10:48:32;9.30;;;5.40;;
67074;SDS011;53990;50.334;18.640;2023-08-24T10:53:52;6.80;;;4.70;;
67074;SDS011;53990;50.334;18.640;2023-08-24T10:56:20;7.50;;;5.00;;
67074;SDS011;53990;50.334;18.640;2023-08-24T10:58:47;8.70;;;4.50;;
67074;SDS011;53990;50.334;18.640;2023-08-24T11:01:38;9.10;;;4.10;;
67074;SDS011;53990;50.334;18.640;2023-08-24T11:04:05;6.90;;;4.20;;
67074;SDS011;53990;50.334;18.640;2023-08-24T11:06:32;8.30;;;4.20;;
67074;SDS011;53990;50.334;18.640;2023-08-24T11:09:06;5.60;;;4.10;;
67074;SDS011;53990;50.334;18.640;2023-08-24T11:11:40;9.50;;;5.40;;
67074;SDS011;53990;50.334;18.640;2023-08-24T11:14:13;7.60;;;4.90;;
67074;SDS011;53990;50.334;18.640;2023-08-24T11:16:49;6.00;;;4.70;;
67074;SDS011;53990;50.334;18.640;2023-08-24T11:19:15;8.10;;;4.50;;
67074;SDS011;53990;50.334;18.640;2023-08-24T11:21:45;6.90;;;4.80;;
67074;SDS011;53990;50.334;18.640;2023-08-24T11:24:13;7.20;;;4.10;;
67074;SDS011;53990;50.334;18.640;2023-08-24T11:26:47;6.90;;;4.00;;
67074;SDS011;53990;50.334;18.640;2023-08-24T11:29:15;7.10;;;4.40;;
67074;SDS011;53990;50.334;18.640;2023-08-24T11:31:42;5.70;;;4.10;;
67074;SDS011;53990;50.334;18.640;2023-08-24T11:34:14;6.90;;;4.00;;
67074;SDS011;53990;50.334;18.640;2023-08-24T11:36:47;7.30;;;4.40;;
67074;SDS011;53990;50.334;18.640;2023-08-24T11:39:18;5.50;;;3.90;;
67074;SDS011;53990;50.334;18.640;2023-08-24T11:42:03;6.80;;;4.00;;
67074;SDS011;53990;50.334;18.640;2023-08-24T11:44:47;6.10;;;4.30;;
67074;SDS011;53990;50.334;18.640;2023-08-24T11:47:14;6.90;;;4.20;;
67074;SDS011;53990;50.334;18.640;2023-08-24T11:49:42;5.30;;;3.40;;
67074;SDS011;53990;50.334;18.640;2023-08-24T11:52:09;7.20;;;3.50;;
67074;SDS011;53990;50.334;18.640;2023-08-24T11:54:36;8.60;;;3.90;;
67074;SDS011;53990;50.334;18.640;2023-08-24T11:57:07;6.80;;;4.10;;
67074;SDS011;53990;50.334;18.640;2023-08-24T11:59:35;6.00;;;4.00;;
67074;SDS011;53990;50.334;18.640;2023-08-24T12:02:03;6.40;;;3.70;;
67074;SDS011;53990;50.334;18.640;2023-08-24T12:04:40;6.90;;;3.60;;
67074;SDS011;53990;50.334;18.640;2023-08-24T12:07:10;6.40;;;3.50;;
67074;SDS011;53990;50.334;18.640;2023-08-24T12:09:38;5.00;;;3.40;;
67074;SDS011;53990;50.334;18.640;2023-08-24T12:12:05;7.20;;;3.90;;
67074;SDS011;53990;50.334;18.640;2023-08-24T12:14:42;5.00;;;3.90;;
67074;SDS011;53990;50.334;18.640;2023-08-24T12:17:09;7.60;;;4.30;;
67074;SDS011;53990;50.334;18.640;2023-08-24T12:19:36;4.30;;;3.00;;
67074;SDS011;53990;50.334;18.640;2023-08-24T12:22:03;1.60;;;1.50;;
67074;SDS011;53990;50.334;18.640;2023-08-24T12:24:30;1.80;;;1.70;;
67074;SDS011;53990;50.334;18.640;2023-08-24T12:26:57;2.80;;;2.70;;
67074;SDS011;53990;50.334;18.640;2023-08-24T12:29:25;3.60;;;3.40;;
67074;SDS011;53990;50.334;18.640;2023-08-24T12:31:56;4.50;;;4.30;;
67074;SDS011;53990;50.334;18.640;2023-08-24T12:34:23;5.70;;;5.40;;
67074;SDS011;53990;50.334;18.640;2023-08-24T12:36:50;6.40;;;6.10;;
67074;SDS011;53990;50.334;18.640;2023-08-24T12:39:17;7.20;;;6.80;;
67074;SDS011;53990;50.334;18.640;2023-08-24T12:41:44;9.30;;;8.90;;
67074;SDS011;53990;50.334;18.640;2023-08-24T12:44:10;9.30;;;8.90;;
67074;SDS011;53990;50.334;18.640;2023-08-24T12:46:37;10.70;;;10.20;;
67074;SDS011;53990;50.334;18.640;2023-08-24T12:49:04;12.20;;;11.70;;
67074;SDS011;53990;50.334;18.640;2023-08-24T12:51:31;14.10;;;13.50;;
67074;SDS011;53990;50.334;18.640;2023-08-24T12:53:58;14.30;;;13.70;;
67074;SDS011;53990;50.334;18.640;2023-08-24T12:56:25;15.90;;;15.20;;
67074;SDS011;53990;50.334;18.640;2023-08-24T12:58:51;15.80;;;15.10;;
67074;SDS011;53990;50.334;18.640;2023-08-24T13:01:18;15.50;;;14.80;;
67074;SDS011;53990;50.334;18.640;2023-08-24T13:03:44;15.70;;;15.00;;
67074;SDS011;53990;50.334;18.640;2023-08-24T13:06:11;16.20;;;15.50;;
67074;SDS011;53990;50.334;18.640;2023-08-24T13:08:38;15.60;;;14.90;;
67074;SDS011;53990;50.334;18.640;2023-08-24T13:11:05;13.60;;;13.00;;
67074;SDS011;53990;50.334;18.640;2023-08-24T13:13:32;13.10;;;12.50;;
67074;SDS011;53990;50.334;18.640;2023-08-24T13:15:58;13.80;;;13.20;;
67074;SDS011;53990;50.334;18.640;2023-08-24T13:18:25;13.60;;;13.00;;
67074;SDS011;53990;50.334;18.640;2023-08-24T13:20:52;14.00;;;13.40;;
67074;SDS011;53990;50.334;18.640;2023-08-24T13:23:18;14.30;;;13.70;;
67074;SDS011;53990;50.334;18.640;2023-08-24T13:25:45;14.40;;;13.80;;
67074;SDS011;53990;50.334;18.640;2023-08-24T13:28:12;12.90;;;12.30;;
67074;SDS011;53990;50.334;18.640;2023-08-24T13:30:39;13.20;;;12.60;;
67074;SDS011;53990;50.334;18.640;2023-08-24T13:33:07;13.30;;;12.70;;
67074;SDS011;53990;50.334;18.640;2023-08-24T13:35:34;10.60;;;10.10;;
67074;SDS011;53990;50.334;18.640;2023-08-24T13:38:01;9.70;;;9.20;;
67074;SDS011;53990;50.334;18.640;2023-08-24T13:40:28;9.40;;;9.00;;
67074;SDS011;53990;50.334;18.640;2023-08-24T13:42:54;9.40;;;9.00;;
67074;SDS011;53990;50.334;18.640;2023-08-24T13:45:21;10.00;;;9.50;;
67074;SDS011;53990;50.334;18.640;2023-08-24T13:47:48;9.20;;;8.80;;
67074;SDS011;53990;50.334;18.640;2023-08-24T13:50:14;9.90;;;9.40;;
67074;SDS011;53990;50.334;18.640;2023-08-24T13:52:41;9.20;;;8.80;;
67074;SDS011;53990;50.334;18.640;2023-08-24T13:55:08;6.80;;;6.50;;
67074;SDS011;53990;50.334;18.640;2023-08-24T13:57:35;5.70;;;5.40;;
67074;SDS011;53990;50.334;18.640;2023-08-24T14:00:02;5.10;;;4.80;;
67074;SDS011;53990;50.334;18.640;2023-08-24T14:02:30;5.20;;;4.90;;
67074;SDS011;53990;50.334;18.640;2023-08-24T14:04:57;4.40;;;4.20;;
67074;SDS011;53990;50.334;18.640;2023-08-24T14:07:24;3.40;;;3.20;;
67074;SDS011;53990;50.334;18.640;2023-08-24T14:09:51;2.40;;;2.30;;
67074;SDS011;53990;50.334;18.640;2023-08-24T14:12:18;2.10;;;2.00;;
67074;SDS011;53990;50.334;18.640;2023-08-24T14:14:45;2.00;;;1.90;;
67074;SDS011;53990;50.334;18.640;2023-08-24T14:17:12;1.60;;;1.50;;
67074;SDS011;53990;50.334;18.640;2023-08-24T14:19:38;1.10;;;1.10;;
67074;SDS011;53990;50.334;18.640;2023-08-24T14:22:05;1.00;;;1.00;;
67074;SDS011;53990;50.334;18.640;2023-08-24T14:24:32;0.70;;;0.70;;
67074;SDS011;53990;50.334;18.640;2023-08-24T14:27:01;0.70;;;0.70;;
67074;SDS011;53990;50.334;18.640;2023-08-24T14:29:27;0.40;;;0.40;;
67074;SDS011;53990;50.334;18.640;2023-08-24T14:31:54;0.40;;;0.40;;
67074;SDS011;53990;50.334;18.640;2023-08-24T14:34:21;0.40;;;0.40;;
67074;SDS011;53990;50.334;18.640;2023-08-24T14:36:48;0.30;;;0.30;;